createdAt,value
2023-02-26T00:00:07.424Z,6.65
2023-02-26T00:03:49.290Z,4.93
2023-02-26T00:07:31.253Z,6.67
2023-02-26T00:11:13.158Z,6.99
2023-02-26T00:14:55.055Z,6.88
2023-02-26T00:18:36.833Z,4.77
2023-02-26T00:22:18.695Z,4.95
2023-02-26T00:26:00.654Z,4.75
2023-02-26T00:29:42.555Z,6.49
2023-02-26T00:33:24.494Z,6.19
2023-02-26T00:37:06.373Z,6.88
2023-02-26T00:40:48.188Z,5.47
2023-02-26T00:44:30.023Z,5.16
2023-02-26T00:48:11.689Z,3.56
2023-02-26T00:51:53.505Z,4.88
2023-02-26T00:55:35.300Z,4.76
2023-02-26T00:59:17.002Z,3.30
2023-02-26T01:02:58.930Z,5.96
2023-02-26T01:06:40.706Z,4.36
2023-02-26T01:10:22.526Z,3.79
2023-02-26T01:14:04.337Z,5.94
2023-02-26T01:17:46.004Z,4.03
2023-02-26T01:21:27.843Z,3.65
2023-02-26T01:25:09.464Z,2.46
2023-02-26T01:28:51.131Z,2.82
2023-02-26T01:32:32.834Z,4.22
2023-02-26T01:36:14.494Z,3.94
2023-02-26T01:39:56.145Z,4.02
2023-02-26T01:50:57.902Z,4.11
2023-02-26T01:54:39.480Z,2.22
2023-02-26T02:02:01.218Z,4.11
2023-02-26T02:13:02.914Z,2.09
2023-02-26T02:20:24.606Z,2.35
2023-02-26T02:27:46.262Z,2.22
2023-02-26T02:31:28.070Z,3.02
2023-02-26T02:35:09.497Z,2.48
2023-02-26T02:38:51.175Z,2.54
2023-02-26T02:49:52.947Z,3.22
2023-02-26T02:53:34.606Z,4.00
2023-02-26T02:57:16.398Z,3.17
2023-02-26T03:00:58.125Z,4.85
2023-02-26T03:04:39.667Z,4.37
2023-02-26T03:08:21.325Z,4.57
2023-02-26T03:12:02.996Z,4.96
2023-02-26T03:15:44.638Z,2.94
2023-02-26T03:19:26.245Z,4.69
2023-02-26T03:23:07.916Z,3.18
2023-02-26T03:26:49.530Z,2.91
2023-02-26T03:30:31.115Z,2.09
2023-02-26T03:34:12.763Z,2.82
2023-02-26T03:41:34.451Z,2.44
2023-02-26T03:45:16.095Z,3.28
2023-02-26T03:48:57.796Z,2.38
2023-02-26T03:52:39.352Z,3.28
2023-02-26T03:56:21.058Z,3.44
2023-02-26T04:00:02.664Z,2.59
2023-02-26T04:03:44.323Z,4.51
2023-02-26T04:07:25.964Z,2.39
2023-02-26T04:11:07.684Z,2.75
2023-02-26T04:14:49.253Z,2.94
2023-02-26T04:18:33.766Z,2.98
2023-02-26T04:22:15.461Z,3.24
2023-02-26T04:25:57.116Z,3.88
2023-02-26T04:29:38.854Z,3.47
2023-02-26T04:33:20.578Z,2.46
2023-02-26T04:37:02.085Z,1.70
2023-02-26T04:40:44.815Z,4.66
2023-02-26T04:44:26.701Z,5.58
2023-02-26T04:48:08.478Z,4.65
2023-02-26T04:51:52.309Z,4.10
2023-02-26T04:55:35.941Z,2.51
2023-02-26T04:59:17.663Z,3.84
2023-02-26T05:02:59.403Z,4.23
2023-02-26T05:06:41.265Z,3.93
2023-02-26T05:10:23.026Z,4.27
2023-02-26T05:14:04.865Z,4.91
2023-02-26T05:17:47.733Z,4.69
2023-02-26T05:21:29.545Z,5.31
2023-02-26T05:25:11.469Z,5.40
2023-02-26T05:28:53.395Z,6.43
2023-02-26T05:32:35.266Z,4.92
2023-02-26T05:36:17.105Z,4.49
2023-02-26T05:39:59.004Z,4.86
2023-02-26T05:43:40.819Z,4.50
2023-02-26T05:47:22.525Z,3.47
2023-02-26T05:51:04.313Z,3.81
2023-02-26T05:54:46.167Z,4.13
2023-02-26T05:58:27.984Z,3.57
2023-02-26T06:02:09.763Z,3.79
2023-02-26T06:05:51.447Z,4.95
2023-02-26T06:09:33.348Z,4.90
2023-02-26T06:13:15.225Z,5.32
2023-02-26T06:16:57.034Z,4.60
2023-02-26T06:20:38.913Z,5.76
2023-02-26T06:24:20.692Z,5.26
2023-02-26T06:28:02.565Z,5.30
2023-02-26T06:31:44.598Z,6.40
2023-02-26T06:35:26.418Z,7.61
2023-02-26T06:39:08.243Z,5.87
2023-02-26T06:42:50.169Z,5.74
2023-02-26T06:46:31.908Z,4.82
2023-02-26T06:50:13.769Z,5.77
2023-02-26T06:53:55.715Z,7.11
2023-02-26T06:57:37.569Z,5.67
2023-02-26T07:01:19.398Z,5.31
2023-02-26T07:05:01.105Z,4.85
2023-02-26T07:08:43.048Z,7.63
2023-02-26T07:12:24.695Z,3.94
2023-02-26T07:16:06.498Z,3.14
2023-02-26T07:19:48.335Z,5.77
2023-02-26T07:23:30.207Z,6.63
2023-02-26T07:27:12.007Z,4.42
2023-02-26T07:30:53.957Z,4.97
2023-02-26T07:34:35.796Z,8.36
2023-02-26T07:38:19.542Z,6.51
2023-02-26T07:41:59.640Z,8.74
2023-02-26T07:45:41.561Z,6.21
2023-02-26T07:49:23.472Z,8.53
2023-02-26T07:53:05.429Z,8.06
2023-02-26T07:56:47.162Z,6.79
2023-02-26T08:00:29.031Z,6.77
2023-02-26T08:04:10.959Z,5.44
2023-02-26T08:07:52.728Z,5.85
2023-02-26T08:11:34.670Z,7.89
2023-02-26T08:15:16.567Z,9.08
2023-02-26T08:18:58.538Z,9.42
2023-02-26T08:22:40.463Z,8.35
2023-02-26T08:26:22.397Z,7.29
2023-02-26T08:30:04.300Z,8.19
2023-02-26T08:33:46.078Z,8.40
2023-02-26T08:37:28.061Z,8.96
2023-02-26T08:41:09.923Z,5.83
2023-02-26T08:44:51.888Z,6.99
2023-02-26T08:48:33.706Z,7.26
2023-02-26T08:52:15.621Z,7.34
2023-02-26T08:55:57.576Z,7.87
2023-02-26T08:59:39.558Z,8.12
2023-02-26T09:03:21.535Z,9.58
2023-02-26T09:07:03.470Z,6.48
2023-02-26T09:10:45.314Z,7.82
2023-02-26T09:14:27.221Z,6.71
2023-02-26T09:18:09.087Z,8.16
2023-02-26T09:21:51.029Z,7.05
2023-02-26T09:25:32.959Z,7.92
2023-02-26T09:29:14.937Z,10.03
2023-02-26T09:32:56.885Z,9.07
2023-02-26T09:36:39.584Z,5.67
2023-02-26T09:40:21.547Z,7.07
2023-02-26T09:44:03.682Z,4.89
2023-02-26T09:47:45.607Z,6.44
2023-02-26T09:51:57.418Z,7.45
2023-02-26T09:55:39.410Z,10.20
2023-02-26T09:59:21.356Z,7.87
2023-02-26T10:03:03.218Z,7.79
2023-02-26T10:06:45.090Z,6.66
2023-02-26T10:10:26.933Z,5.46
2023-02-26T10:14:08.923Z,10.06
2023-02-26T10:17:51.877Z,7.54
2023-02-26T10:21:33.795Z,7.45
2023-02-26T10:25:15.637Z,6.20
2023-02-26T10:28:57.480Z,6.92
2023-02-26T10:32:39.462Z,7.61
2023-02-26T10:36:21.365Z,9.35
2023-02-26T10:40:03.337Z,11.15
2023-02-26T10:43:45.239Z,7.28
2023-02-26T10:47:27.291Z,10.71
2023-02-26T10:51:09.252Z,8.77
2023-02-26T10:54:51.244Z,7.23
2023-02-26T10:58:33.245Z,9.60
2023-02-26T11:02:15.209Z,8.42
2023-02-26T11:05:57.236Z,10.94
2023-02-26T11:09:39.237Z,8.55
2023-02-26T11:13:21.247Z,10.07
2023-02-26T11:17:03.169Z,9.36
2023-02-26T11:20:45.292Z,11.74
2023-02-26T11:24:27.437Z,9.01
2023-02-26T11:28:09.462Z,11.38
2023-02-26T11:31:51.657Z,8.52
2023-02-26T11:35:33.497Z,8.89
2023-02-26T11:39:15.567Z,10.88
2023-02-26T11:42:57.547Z,9.47
2023-02-26T11:46:39.526Z,8.48
2023-02-26T11:50:21.562Z,10.63
2023-02-26T11:54:03.425Z,8.61
2023-02-26T11:57:45.426Z,8.48
2023-02-26T12:01:27.721Z,8.53
2023-02-26T12:05:09.441Z,8.02
2023-02-26T12:08:51.407Z,10.61
2023-02-26T12:12:33.242Z,9.17
2023-02-26T12:16:15.232Z,9.88
2023-02-26T12:19:57.377Z,8.93
2023-02-26T12:23:39.575Z,9.37
2023-02-26T12:27:21.805Z,12.03
2023-02-26T12:31:04.033Z,11.28
2023-02-26T12:34:46.021Z,11.43
2023-02-26T12:38:28.107Z,11.75
2023-02-26T12:42:10.107Z,11.02
2023-02-26T12:45:52.176Z,13.21
2023-02-26T12:49:34.125Z,10.15
2023-02-26T12:53:16.090Z,8.89
2023-02-26T12:56:58.153Z,10.69
2023-02-26T13:00:40.185Z,11.02
2023-02-26T13:04:22.236Z,7.10
2023-02-26T13:08:04.456Z,14.28
2023-02-26T13:11:46.582Z,12.72
2023-02-26T13:15:28.603Z,12.36
2023-02-26T13:19:10.765Z,10.29
2023-02-26T13:22:53.020Z,12.18
2023-02-26T13:26:35.066Z,10.85
2023-02-26T13:30:17.086Z,12.52
2023-02-26T13:33:59.863Z,11.43
2023-02-26T13:37:41.808Z,11.66
2023-02-26T13:41:24.379Z,7.10
2023-02-26T13:45:06.054Z,11.19
2023-02-26T13:48:48.086Z,11.82
2023-02-26T13:52:30.261Z,12.38
2023-02-26T13:56:12.431Z,8.45
2023-02-26T13:59:54.648Z,13.25
2023-02-26T14:03:36.759Z,9.90
2023-02-26T14:07:18.888Z,10.15
2023-02-26T14:11:01.075Z,11.93
2023-02-26T14:14:43.241Z,8.23
2023-02-26T14:18:25.463Z,8.59
2023-02-26T14:22:07.542Z,10.88
2023-02-26T14:25:49.740Z,12.33
2023-02-26T14:29:31.967Z,11.27
2023-02-26T14:33:14.185Z,10.16
2023-02-26T14:36:56.378Z,12.24
2023-02-26T14:40:38.404Z,10.64
2023-02-26T14:44:20.481Z,8.61
2023-02-26T14:48:02.717Z,11.05
2023-02-26T14:51:44.783Z,9.87
2023-02-26T14:55:27.017Z,7.95
2023-02-26T14:59:09.266Z,11.17
2023-02-26T15:02:51.473Z,8.30
2023-02-26T15:06:33.561Z,9.47
2023-02-26T15:10:15.726Z,9.14
2023-02-26T15:13:57.905Z,9.33
2023-02-26T15:17:39.929Z,9.93
2023-02-26T15:21:21.888Z,5.05
2023-02-26T15:25:04.125Z,7.81
2023-02-26T15:28:46.284Z,7.01
2023-02-26T15:32:28.399Z,5.73
2023-02-26T15:36:10.136Z,4.86
2023-02-26T15:39:52.206Z,4.99
2023-02-26T15:43:34.440Z,9.19
2023-02-26T15:47:16.638Z,7.69
2023-02-26T15:50:58.808Z,9.14
2023-02-26T15:54:40.916Z,9.36
2023-02-26T15:58:22.995Z,6.04
2023-02-26T16:02:05.266Z,8.29
2023-02-26T16:05:47.220Z,8.24
2023-02-26T16:09:29.202Z,8.78
2023-02-26T16:13:11.172Z,8.30
2023-02-26T16:16:53.356Z,6.49
2023-02-26T16:20:35.384Z,6.57
2023-02-26T16:24:17.320Z,6.94
2023-02-26T16:27:59.430Z,6.15
2023-02-26T16:31:41.807Z,6.96
2023-02-26T16:35:23.797Z,7.55
2023-02-26T16:39:05.795Z,6.71
2023-02-26T16:42:47.817Z,7.16
2023-02-26T16:46:30.080Z,6.27
2023-02-26T16:50:12.160Z,6.15
2023-02-26T16:53:54.301Z,7.61
2023-02-26T16:57:36.418Z,7.12
2023-02-26T17:01:18.625Z,6.69
2023-02-26T17:05:00.646Z,8.57
2023-02-26T17:08:43.588Z,4.57
2023-02-26T17:12:25.486Z,5.29
2023-02-26T17:16:07.465Z,7.13
2023-02-26T17:19:49.308Z,5.03
2023-02-26T17:23:31.463Z,5.38
2023-02-26T17:27:13.378Z,5.02
2023-02-26T17:30:55.521Z,4.57
2023-02-26T17:34:37.607Z,4.89
2023-02-26T17:38:19.672Z,8.18
2023-02-26T17:42:01.871Z,4.47
2023-02-26T17:45:43.812Z,5.71
2023-02-26T17:49:25.856Z,7.97
2023-02-26T17:53:07.917Z,6.76
2023-02-26T17:56:50.046Z,4.87
2023-02-26T18:00:32.184Z,6.63
2023-02-26T18:04:14.311Z,3.77
2023-02-26T18:07:56.154Z,6.17
2023-02-26T18:11:38.089Z,4.47
2023-02-26T18:15:20.083Z,4.80
2023-02-26T18:19:02.234Z,8.21
2023-02-26T18:22:44.463Z,7.12
2023-02-26T18:26:26.663Z,7.42
2023-02-26T18:30:08.971Z,6.36
2023-02-26T18:33:52.180Z,7.53
2023-02-26T18:37:34.160Z,5.90
2023-02-26T18:41:17.169Z,5.71
2023-02-26T18:44:59.230Z,5.33
2023-02-26T18:48:41.430Z,7.04
2023-02-26T18:52:23.673Z,6.54
2023-02-26T18:56:05.586Z,3.78
2023-02-26T18:59:47.417Z,8.98
2023-02-26T19:03:29.382Z,6.13
2023-02-26T19:07:11.539Z,4.91
2023-02-26T19:10:53.586Z,6.56
2023-02-26T19:14:35.794Z,7.07
2023-02-26T19:18:17.759Z,6.45
2023-02-26T19:21:59.902Z,7.07
2023-02-26T19:25:42.929Z,4.88
2023-02-26T19:29:24.247Z,5.93
2023-02-26T19:33:06.285Z,5.38
2023-02-26T19:36:48.545Z,8.72
2023-02-26T19:40:30.478Z,4.83
2023-02-26T19:44:12.689Z,6.50
2023-02-26T19:47:54.922Z,8.89
2023-02-26T19:51:37.207Z,5.87
2023-02-26T19:55:19.324Z,6.27
2023-02-26T19:59:01.309Z,4.41
2023-02-26T20:02:43.438Z,5.20
2023-02-26T20:06:25.458Z,5.05
2023-02-26T20:10:08.151Z,5.57
2023-02-26T20:13:51.241Z,9.14
2023-02-26T20:17:33.945Z,4.40
2023-02-26T20:21:15.938Z,7.63
2023-02-26T20:24:58.072Z,7.14
2023-02-26T20:28:40.165Z,6.13
2023-02-26T20:32:22.359Z,8.75
2023-02-26T20:36:04.119Z,7.20
2023-02-26T20:39:46.233Z,10.56
2023-02-26T20:43:28.427Z,9.72
2023-02-26T20:47:10.670Z,7.81
2023-02-26T20:50:52.758Z,6.32
2023-02-26T20:54:34.943Z,9.16
2023-02-26T20:58:17.065Z,9.56
2023-02-26T21:01:59.188Z,6.65
2023-02-26T21:05:41.390Z,7.50
2023-02-26T21:09:23.292Z,9.26
2023-02-26T21:13:05.195Z,7.22
2023-02-26T21:16:47.201Z,10.09
2023-02-26T21:20:29.070Z,4.52
2023-02-26T21:24:11.107Z,5.81
2023-02-26T21:27:53.026Z,6.46
2023-02-26T21:31:35.016Z,10.23
2023-02-26T21:35:17.024Z,8.85
2023-02-26T21:38:59.271Z,9.60
2023-02-26T21:42:41.228Z,5.09
2023-02-26T21:46:23.044Z,10.14
2023-02-26T21:50:04.943Z,6.79
2023-02-26T21:53:46.765Z,5.61
2023-02-26T21:57:28.626Z,6.92
2023-02-26T22:01:10.520Z,4.98
2023-02-26T22:04:52.319Z,7.77
2023-02-26T22:08:34.247Z,8.34
2023-02-26T22:12:16.145Z,10.71
2023-02-26T22:15:57.996Z,9.05
2023-02-26T22:19:39.916Z,8.80
2023-02-26T22:23:21.729Z,5.94
2023-02-26T22:27:03.631Z,7.84
2023-02-26T22:30:45.653Z,7.59
2023-02-26T22:34:27.463Z,12.37
2023-02-26T22:38:09.266Z,7.52
2023-02-26T22:41:51.201Z,8.73
2023-02-26T22:45:33.142Z,8.04
2023-02-26T22:49:14.946Z,5.37
2023-02-26T22:52:56.833Z,7.17
2023-02-26T22:56:38.642Z,5.38
2023-02-26T23:00:21.506Z,7.95
2023-02-26T23:04:03.407Z,5.13
2023-02-26T23:07:45.127Z,6.09
2023-02-26T23:11:27.281Z,5.37
2023-02-26T23:15:08.768Z,7.78
2023-02-26T23:18:50.384Z,5.41
2023-02-26T23:22:32.122Z,5.14
2023-02-26T23:26:13.838Z,6.27
2023-02-26T23:29:55.754Z,5.37
2023-02-26T23:33:37.516Z,5.49
2023-02-26T23:37:19.180Z,5.28
2023-02-26T23:41:00.794Z,2.48
2023-02-26T23:44:42.384Z,2.25
2023-02-26T23:48:23.982Z,9.85
2023-02-26T23:52:05.586Z,2.87
2023-02-26T23:55:47.158Z,2.77
